Time;durP1;ratioP1;P1;durP2;ratioP2;P2;SDS_P1;SDS_P2;PMS_P1;PMS_P2;Temp;Humidity;BMP_temperature;BMP_pressure;BME280_temperature;BME280_humidity;BME280_pressure;Samples;Min_cycle;Max_cycle;Signal;HPM_P1;HPM_P2
2023/08/07 00:01:51;;;;;;;4.80;2.90;;;16.30;1.00;;;;;;5063712;28;20562;-78
2023/08/07 00:04:18;;;;;;;2.93;2.63;;;16.30;1.00;;;;;;5060401;28;20483;-78
2023/08/07 00:06:45;;;;;;;3.00;2.70;;;16.30;1.00;;;;;;5061157;28;20538;-77
2023/08/07 00:09:13;;;;;;;3.43;2.63;;;16.30;1.00;;;;;;5064321;28;20491;-77
2023/08/07 00:11:40;;;;;;;3.27;2.40;;;16.30;1.00;;;;;;5062049;28;20967;-77
2023/08/07 00:14:07;;;;;;;6.27;3.30;;;16.30;1.00;;;;;;5062272;28;20537;-78
2023/08/07 00:16:34;;;;;;;2.97;2.67;;;16.30;1.00;;;;;;5063707;28;20472;-78
2023/08/07 00:19:01;;;;;;;2.80;2.60;;;16.30;1.00;;;;;;5061407;28;20467;-76
2023/08/07 00:21:28;;;;;;;4.47;3.07;;;16.30;1.00;;;;;;5061628;28;20468;-78
2023/08/07 00:23:55;;;;;;;3.50;2.53;;;16.30;1.00;;;;;;5062298;28;20471;-78
2023/08/07 00:26:24;;;;;;;4.20;3.63;;;16.30;1.00;;;;;;5063155;28;20503;-78
2023/08/07 00:28:54;;;;;;;4.20;3.30;;;16.30;1.00;;;;;;5060100;28;20543;-78
2023/08/07 00:31:20;;;;;;;3.43;2.97;;;16.30;1.00;;;;;;5064638;28;26425;-77
2023/08/07 00:33:51;;;;;;;4.50;3.40;;;16.30;1.00;;;;;;5062671;28;20503;-78
2023/08/07 00:36:18;;;;;;;4.93;3.23;;;16.20;1.00;;;;;;5061106;28;20974;-78
2023/08/07 00:38:45;;;;;;;4.20;3.43;;;16.20;1.00;;;;;;5061376;28;20556;-78
2023/08/07 00:41:12;;;;;;;5.70;3.30;;;16.20;1.00;;;;;;5061687;28;20467;-78
2023/08/07 00:43:41;;;;;;;5.50;3.80;;;16.30;1.00;;;;;;5061758;28;20476;-78
2023/08/07 00:46:07;;;;;;;3.93;3.40;;;16.30;1.00;;;;;;5053659;28;20549;-79
2023/08/07 00:48:34;;;;;;;3.90;3.60;;;16.20;1.00;;;;;;5059969;28;20479;-78
2023/08/07 00:51:03;;;;;;;3.83;3.40;;;16.20;1.00;;;;;;5055870;28;20466;-78
2023/08/07 00:53:30;;;;;;;4.37;3.97;;;16.30;1.00;;;;;;5063176;28;20596;-80
2023/08/07 00:55:58;;;;;;;4.50;3.93;;;16.30;1.00;;;;;;5062225;28;20520;-78
2023/08/07 00:58:25;;;;;;;5.70;4.37;;;16.30;1.00;;;;;;5060792;28;20529;-77
2023/08/07 01:00:53;;;;;;;5.17;3.57;;;16.30;1.00;;;;;;5064543;28;20550;-77
2023/08/07 01:03:21;;;;;;;3.83;3.43;;;16.40;1.00;;;;;;5060006;28;20868;-77
2023/08/07 01:05:48;;;;;;;4.97;4.30;;;16.40;1.00;;;;;;5061462;28;20471;-76
2023/08/07 01:08:15;;;;;;;3.77;3.47;;;16.30;1.00;;;;;;5061899;28;20486;-78
2023/08/07 01:10:51;;;;;;;3.50;3.20;;;16.30;1.00;;;;;;5061543;28;20574;-79
2023/08/07 01:13:29;;;;;;;3.83;3.43;;;16.30;1.00;;;;;;5059812;28;20484;-78
2023/08/07 01:16:07;;;;;;;3.10;2.80;;;16.30;1.00;;;;;;5062471;28;20553;-79
2023/08/07 01:18:35;;;;;;;3.20;2.90;;;16.30;1.00;;;;;;5062570;28;20526;-78
2023/08/07 01:21:04;;;;;;;3.07;2.80;;;16.30;1.00;;;;;;5057359;28;20460;-78
2023/08/07 01:23:32;;;;;;;3.80;3.40;;;16.30;1.00;;;;;;5060753;28;20534;-77
2023/08/07 01:25:59;;;;;;;4.40;3.43;;;16.30;1.00;;;;;;5062151;28;20466;-78
2023/08/07 01:28:31;;;;;;;3.10;2.90;;;16.30;1.00;;;;;;5063331;28;20456;-78
2023/08/07 01:31:04;;;;;;;6.63;3.07;;;16.40;1.00;;;;;;5066207;28;20468;-78
2023/08/07 01:33:35;;;;;;;3.40;3.10;;;16.40;1.00;;;;;;5066831;28;20544;-79
2023/08/07 01:36:06;;;;;;;3.37;3.07;;;16.50;1.00;;;;;;5060776;28;21042;-77
2023/08/07 01:38:35;;;;;;;4.53;3.40;;;16.50;1.00;;;;;;5064527;28;20459;-77
2023/08/07 01:41:03;;;;;;;3.50;3.20;;;16.40;1.00;;;;;;5063509;28;20472;-78
2023/08/07 01:43:32;;;;;;;3.90;3.43;;;16.40;1.00;;;;;;5065236;28;20471;-77
2023/08/07 01:46:02;;;;;;;3.83;3.43;;;16.40;1.00;;;;;;5067306;28;20451;-77
2023/08/07 01:48:29;;;;;;;3.50;3.20;;;16.30;1.00;;;;;;5062664;28;20465;-79
2023/08/07 01:50:56;;;;;;;3.43;3.13;;;16.30;1.00;;;;;;5064743;28;20468;-77
2023/08/07 01:53:23;;;;;;;4.77;3.10;;;16.40;1.00;;;;;;5062137;28;20484;-78
2023/08/07 01:55:51;;;;;;;3.40;2.87;;;16.30;1.00;;;;;;5064191;28;20529;-77
2023/08/07 01:58:19;;;;;;;3.47;3.17;;;16.30;1.00;;;;;;5063980;28;20547;-79
2023/08/07 02:00:45;;;;;;;5.90;4.10;;;16.20;1.00;;;;;;5065733;28;20585;-78
2023/08/07 02:03:12;;;;;;;4.60;3.30;;;16.20;1.00;;;;;;5061439;28;20476;-78
2023/08/07 02:05:39;;;;;;;4.87;3.83;;;16.10;1.00;;;;;;5062168;28;20543;-78
2023/08/07 02:08:06;;;;;;;4.30;3.77;;;16.00;1.00;;;;;;5061643;28;20538;-77
2023/08/07 02:10:34;;;;;;;4.70;3.87;;;15.90;1.00;;;;;;5066067;28;20529;-78
2023/08/07 02:13:02;;;;;;;6.03;4.20;;;15.90;1.00;;;;;;5067023;28;20476;-77
2023/08/07 02:15:30;;;;;;;4.90;3.90;;;15.80;1.00;;;;;;5065942;28;20468;-78
2023/08/07 02:17:57;;;;;;;6.47;3.70;;;15.70;1.00;;;;;;5066202;28;20471;-77
2023/08/07 02:20:24;;;;;;;6.93;4.77;;;15.70;1.00;;;;;;5064747;28;20513;-78
2023/08/07 02:22:51;;;;;;;8.17;4.57;;;15.70;1.00;;;;;;5063752;28;20616;-77
2023/08/07 02:25:18;;;;;;;4.87;3.70;;;15.70;1.00;;;;;;5063804;28;22511;-78
2023/08/07 02:27:45;;;;;;;5.27;4.30;;;15.70;1.00;;;;;;5062372;28;21395;-79
2023/08/07 02:30:14;;;;;;;5.93;4.40;;;15.80;1.00;;;;;;5063551;28;20476;-77
2023/08/07 02:32:44;;;;;;;5.63;4.27;;;15.70;1.00;;;;;;5067635;28;20571;-76
2023/08/07 02:35:12;;;;;;;4.67;4.27;;;15.80;1.00;;;;;;5066566;28;20452;-78
2023/08/07 02:37:39;;;;;;;5.90;3.97;;;15.80;1.00;;;;;;5062381;28;20491;-78
2023/08/07 02:40:07;;;;;;;5.37;4.87;;;15.90;1.00;;;;;;5065013;28;20540;-77
2023/08/07 02:42:34;;;;;;;4.97;4.47;;;16.00;1.00;;;;;;5064244;28;20522;-77
2023/08/07 02:45:02;;;;;;;5.67;4.83;;;16.00;1.00;;;;;;5063639;28;20510;-78
2023/08/07 02:47:31;;;;;;;4.77;4.37;;;16.00;1.00;;;;;;5063837;28;20486;-77
2023/08/07 02:49:59;;;;;;;5.13;4.50;;;16.00;1.00;;;;;;5060151;28;20460;-77
2023/08/07 02:52:26;;;;;;;7.07;5.10;;;16.10;1.00;;;;;;5063645;28;20966;-77
2023/08/07 02:54:52;;;;;;;7.00;5.00;;;16.20;1.00;;;;;;5063422;28;20475;-77
2023/08/07 02:57:19;;;;;;;5.83;5.10;;;16.20;1.00;;;;;;5063424;28;20503;-78
2023/08/07 02:59:46;;;;;;;6.20;5.17;;;16.20;1.00;;;;;;5066565;28;20487;-79
2023/08/07 03:02:13;;;;;;;5.77;5.17;;;16.30;1.00;;;;;;5064605;28;21368;-77
2023/08/07 03:04:42;;;;;;;9.27;4.97;;;16.30;1.00;;;;;;5066041;28;20452;-77
2023/08/07 03:07:09;;;;;;;8.80;5.40;;;16.20;1.00;;;;;;5065271;28;20495;-77
2023/08/07 03:09:36;;;;;;;8.37;5.10;;;16.20;1.00;;;;;;5064093;28;20478;-77
2023/08/07 03:12:04;;;;;;;7.83;5.20;;;16.20;1.00;;;;;;5064873;28;20514;-77
2023/08/07 03:14:31;;;;;;;6.23;5.50;;;16.20;1.00;;;;;;5065037;28;20463;-77
2023/08/07 03:16:58;;;;;;;5.60;5.10;;;16.20;1.00;;;;;;5066907;28;21610;-77
2023/08/07 03:19:25;;;;;;;7.20;5.00;;;16.20;1.00;;;;;;5060507;28;20476;-78
2023/08/07 03:21:54;;;;;;;7.23;4.90;;;16.20;1.00;;;;;;5063412;28;20521;-77
2023/08/07 03:24:20;;;;;;;7.10;5.40;;;16.20;1.00;;;;;;5061771;28;20459;-77
2023/08/07 03:26:49;;;;;;;6.00;5.37;;;16.20;1.00;;;;;;5062748;28;20534;-77
2023/08/07 03:29:16;;;;;;;7.40;6.70;;;16.20;1.00;;;;;;5062459;28;20461;-79
2023/08/07 03:31:43;;;;;;;6.00;5.50;;;16.30;1.00;;;;;;5066075;28;20546;-77
2023/08/07 03:34:10;;;;;;;6.07;5.47;;;16.30;1.00;;;;;;5067734;28;20547;-77
2023/08/07 03:36:37;;;;;;;6.00;5.50;;;16.30;1.00;;;;;;5062099;28;21412;-77
2023/08/07 03:39:05;;;;;;;6.30;5.70;;;16.20;1.00;;;;;;5065996;28;20460;-78
2023/08/07 03:41:33;;;;;;;6.17;5.50;;;16.20;1.00;;;;;;5066229;28;20900;-77
2023/08/07 03:44:00;;;;;;;6.00;5.50;;;16.10;1.00;;;;;;5066485;28;20881;-78
2023/08/07 03:46:27;;;;;;;6.47;5.87;;;16.10;1.00;;;;;;5063459;28;20536;-77
2023/08/07 03:48:56;;;;;;;8.50;5.80;;;16.20;1.00;;;;;;5064917;28;20468;-76
2023/08/07 03:51:24;;;;;;;8.43;5.73;;;16.20;1.00;;;;;;5063773;28;20980;-78
2023/08/07 03:53:51;;;;;;;10.17;8.33;;;16.20;1.00;;;;;;5063899;28;20455;-77
2023/08/07 03:56:20;;;;;;;6.93;6.20;;;16.20;1.00;;;;;;5062945;28;20617;-78
2023/08/07 03:58:49;;;;;;;7.00;5.70;;;16.20;1.00;;;;;;5065002;28;20463;-77
2023/08/07 04:01:16;;;;;;;6.87;5.93;;;16.20;1.00;;;;;;5063771;28;20562;-76
2023/08/07 04:03:43;;;;;;;6.93;6.33;;;16.10;1.00;;;;;;5060595;28;20503;-77
2023/08/07 04:06:15;;;;;;;8.23;6.90;;;16.20;1.00;;;;;;5060478;28;20525;-77
2023/08/07 04:08:42;;;;;;;6.53;5.93;;;16.10;1.00;;;;;;5061932;28;20458;-77
2023/08/07 04:11:10;;;;;;;6.77;5.93;;;16.10;1.00;;;;;;5062918;28;20530;-77
2023/08/07 04:13:38;;;;;;;7.63;6.70;;;16.10;1.00;;;;;;5066499;28;20440;-77
2023/08/07 04:16:06;;;;;;;7.07;6.33;;;16.10;1.00;;;;;;5064223;28;20479;-77
2023/08/07 04:18:34;;;;;;;7.33;5.97;;;16.10;1.00;;;;;;5064031;28;20475;-77
2023/08/07 04:21:01;;;;;;;7.63;5.77;;;16.10;1.00;;;;;;5063831;28;20479;-78
2023/08/07 04:23:28;;;;;;;7.07;6.07;;;16.20;1.00;;;;;;5061512;28;20467;-77
2023/08/07 04:25:56;;;;;;;6.50;5.90;;;16.20;1.00;;;;;;5065408;28;20463;-77
2023/08/07 04:28:23;;;;;;;8.40;5.83;;;16.10;1.00;;;;;;5065427;28;20461;-76
2023/08/07 04:30:53;;;;;;;8.37;5.63;;;16.20;1.00;;;;;;5061236;28;20467;-77
2023/08/07 04:33:20;;;;;;;6.90;5.50;;;16.20;1.00;;;;;;5062335;28;20459;-77
2023/08/07 04:35:47;;;;;;;9.00;6.30;;;16.20;1.00;;;;;;5062797;28;20472;-77
2023/08/07 04:38:15;;;;;;;6.77;6.13;;;16.30;1.00;;;;;;5063287;28;20458;-77
2023/08/07 04:40:46;;;;;;;7.70;5.80;;;16.30;1.00;;;;;;5065192;28;20529;-79
2023/08/07 04:43:13;;;;;;;6.90;5.43;;;16.30;1.00;;;;;;5067933;28;20482;-79
2023/08/07 04:45:40;;;;;;;5.80;5.40;;;16.40;1.00;;;;;;5065693;28;20472;-78
2023/08/07 04:48:09;;;;;;;5.87;5.43;;;16.40;1.00;;;;;;5063581;28;20513;-79
2023/08/07 04:50:36;;;;;;;6.00;5.40;;;16.30;1.00;;;;;;5061145;28;20488;-78
2023/08/07 04:53:03;;;;;;;8.43;5.63;;;16.30;1.00;;;;;;5065962;28;20452;-79
2023/08/07 04:55:29;;;;;;;6.13;5.30;;;16.30;1.00;;;;;;5063842;28;20456;-78
2023/08/07 04:57:56;;;;;;;6.63;4.97;;;16.30;1.00;;;;;;5063404;28;21252;-78
2023/08/07 05:00:24;;;;;;;7.40;5.37;;;16.30;1.00;;;;;;5062246;28;21726;-78
2023/08/07 05:02:51;;;;;;;5.90;5.30;;;16.30;1.00;;;;;;5062687;28;20452;-78
2023/08/07 05:05:20;;;;;;;6.37;5.43;;;16.40;1.00;;;;;;5066186;28;20471;-78
2023/08/07 05:07:47;;;;;;;6.50;5.63;;;16.40;1.00;;;;;;5069008;28;20463;-78
2023/08/07 05:10:17;;;;;;;5.60;5.07;;;16.50;1.00;;;;;;5066209;28;20481;-77
2023/08/07 05:12:44;;;;;;;5.83;4.53;;;16.50;1.00;;;;;;5066795;28;20563;-79
2023/08/07 05:15:11;;;;;;;5.43;4.90;;;16.50;1.00;;;;;;5066296;28;20954;-78
2023/08/07 05:17:38;;;;;;;5.20;4.70;;;16.70;1.00;;;;;;5067481;28;20459;-79
2023/08/07 05:20:06;;;;;;;4.93;4.33;;;16.60;1.00;;;;;;5060781;28;20890;-78
2023/08/07 05:22:38;;;;;;;5.67;4.23;;;16.50;1.00;;;;;;5067698;28;20542;-78
2023/08/07 05:25:06;;;;;;;5.97;4.47;;;16.50;1.00;;;;;;5065603;28;20502;-78
2023/08/07 05:27:33;;;;;;;5.80;4.90;;;16.40;1.00;;;;;;5065674;28;20472;-78
2023/08/07 05:30:00;;;;;;;8.10;4.50;;;16.30;1.00;;;;;;5062884;28;20564;-78
2023/08/07 05:32:28;;;;;;;6.50;4.47;;;16.20;1.00;;;;;;5068892;28;20501;-78
2023/08/07 05:34:55;;;;;;;5.00;4.50;;;16.20;1.00;;;;;;5068454;28;20922;-77
2023/08/07 05:37:22;;;;;;;7.83;6.87;;;16.20;1.00;;;;;;5066769;28;20452;-84
2023/08/07 05:39:51;;;;;;;4.17;3.87;;;16.20;1.00;;;;;;5068962;28;20532;-80
2023/08/07 05:42:18;;;;;;;6.07;4.67;;;16.20;1.00;;;;;;5059467;28;21389;-78
2023/08/07 05:44:45;;;;;;;4.20;3.80;;;16.20;1.00;;;;;;5067001;28;20638;-79
2023/08/07 05:47:12;;;;;;;5.00;4.53;;;16.20;1.00;;;;;;5066119;28;20448;-79
2023/08/07 05:49:39;;;;;;;4.50;3.77;;;16.30;1.00;;;;;;5065937;28;20471;-78
2023/08/07 05:52:07;;;;;;;9.07;7.23;;;16.20;1.00;;;;;;5065692;28;20439;-80
2023/08/07 05:54:34;;;;;;;5.33;4.60;;;16.20;1.00;;;;;;5067449;28;20568;-80
2023/08/07 05:57:03;;;;;;;5.67;4.90;;;16.20;1.00;;;;;;5063589;28;21744;-80
2023/08/07 05:59:30;;;;;;;6.90;5.60;;;16.30;1.00;;;;;;5066865;28;20911;-81
2023/08/07 06:01:59;;;;;;;4.57;4.17;;;16.40;1.00;;;;;;5065839;28;20464;-80
2023/08/07 06:04:26;;;;;;;5.67;5.17;;;16.40;1.00;;;;;;5062666;28;20456;-78
2023/08/07 06:06:58;;;;;;;5.40;4.10;;;16.40;1.00;;;;;;5065208;28;20990;-78
2023/08/07 06:09:26;;;;;;;4.97;4.20;;;16.50;1.00;;;;;;5063289;28;20468;-77
2023/08/07 06:11:53;;;;;;;10.90;4.30;;;16.50;1.00;;;;;;5066780;28;20476;-78
2023/08/07 06:14:21;;;;;;;6.40;5.70;;;16.60;1.00;;;;;;5069419;28;20459;-78
2023/08/07 06:16:49;;;;;;;5.73;4.37;;;16.60;1.00;;;;;;5064911;28;20963;-80
2023/08/07 06:19:16;;;;;;;6.33;4.10;;;16.70;1.00;;;;;;5066397;28;20467;-79
2023/08/07 06:21:43;;;;;;;7.43;3.90;;;16.80;1.00;;;;;;5064892;28;20557;-79
2023/08/07 06:24:10;;;;;;;4.17;3.77;;;16.90;1.00;;;;;;5060623;28;20971;-79
2023/08/07 06:26:37;;;;;;;4.67;4.27;;;17.00;1.00;;;;;;5064729;28;20658;-80
2023/08/07 06:29:04;;;;;;;4.73;4.20;;;17.10;1.00;;;;;;5060118;28;20527;-79
2023/08/07 06:31:32;;;;;;;6.10;3.80;;;17.20;1.00;;;;;;5065434;28;20514;-78
2023/08/07 06:34:00;;;;;;;5.03;3.67;;;17.30;1.00;;;;;;5064088;28;21757;-80
2023/08/07 06:36:28;;;;;;;3.93;3.60;;;17.50;1.00;;;;;;5062753;28;20457;-80
2023/08/07 06:38:56;;;;;;;4.60;3.07;;;17.50;1.00;;;;;;5063192;28;20440;-78
2023/08/07 06:41:23;;;;;;;3.83;3.30;;;17.60;1.00;;;;;;5059302;28;20452;-79
2023/08/07 06:43:51;;;;;;;6.17;3.23;;;17.70;1.00;;;;;;5060838;28;20971;-79
2023/08/07 06:46:24;;;;;;;4.23;3.27;;;17.70;1.00;;;;;;5057578;28;20471;-77
2023/08/07 06:48:52;;;;;;;3.27;3.07;;;17.70;1.00;;;;;;5059062;28;20464;-78
2023/08/07 06:51:19;;;;;;;5.60;3.10;;;17.80;1.00;;;;;;5059521;28;20479;-78
2023/08/07 06:53:46;;;;;;;3.00;2.80;;;17.90;1.00;;;;;;5063249;28;20461;-80
2023/08/07 06:56:13;;;;;;;4.20;3.40;;;17.90;1.00;;;;;;5064751;28;21118;-80
2023/08/07 06:58:40;;;;;;;6.80;3.70;;;18.00;1.00;;;;;;5061172;28;20860;-79
2023/08/07 07:01:07;;;;;;;4.90;2.93;;;18.00;1.00;;;;;;5062049;28;20882;-78
2023/08/07 07:03:34;;;;;;;3.43;2.63;;;18.00;1.00;;;;;;5063313;28;20562;-77
2023/08/07 07:06:02;;;;;;;3.10;2.80;;;18.10;1.00;;;;;;5059658;28;20468;-79
2023/08/07 07:08:29;;;;;;;4.57;3.23;;;18.10;1.00;;;;;;5062502;28;20469;-81
2023/08/07 07:10:58;;;;;;;3.10;2.90;;;18.10;1.00;;;;;;5064851;28;20537;-79
2023/08/07 07:13:25;;;;;;;6.40;2.83;;;18.30;1.00;;;;;;5062800;28;20465;-78
2023/08/07 07:15:54;;;;;;;4.50;2.50;;;18.50;1.00;;;;;;5061199;28;20509;-78
2023/08/07 07:18:21;;;;;;;4.47;2.90;;;18.50;1.00;;;;;;5063660;28;20538;-77
2023/08/07 07:20:48;;;;;;;4.90;2.80;;;18.60;1.00;;;;;;5060883;28;20531;-77
2023/08/07 07:23:18;;;;;;;4.23;3.13;;;18.50;1.00;;;;;;5059741;28;20557;-78
2023/08/07 07:25:45;;;;;;;4.53;2.80;;;18.60;1.00;;;;;;5060149;28;20546;-80
2023/08/07 07:28:12;;;;;;;3.60;3.30;;;18.90;1.00;;;;;;5063877;28;20674;-82
2023/08/07 07:30:40;;;;;;;3.10;2.50;;;19.00;1.00;;;;;;5053988;28;20501;-80
2023/08/07 07:33:07;;;;;;;2.73;2.53;;;19.20;1.00;;;;;;5059470;28;20483;-80
2023/08/07 07:35:39;;;;;;;4.43;2.87;;;19.20;1.00;;;;;;5057683;28;20887;-80
2023/08/07 07:38:07;;;;;;;4.73;2.70;;;19.10;1.00;;;;;;5056655;28;20937;-77
2023/08/07 07:40:35;;;;;;;6.60;3.00;;;19.20;1.00;;;;;;5063293;28;20905;-80
2023/08/07 07:43:04;;;;;;;4.33;2.60;;;19.30;1.00;;;;;;5062036;28;20539;-81
2023/08/07 07:45:33;;;;;;;3.73;2.10;;;19.40;1.00;;;;;;5062633;28;20460;-79
2023/08/07 07:48:00;;;;;;;3.77;2.20;;;19.40;1.00;;;;;;5061921;28;20473;-80
2023/08/07 07:50:27;;;;;;;4.60;2.80;;;19.40;1.00;;;;;;5063298;28;20523;-79
2023/08/07 07:52:54;;;;;;;2.53;2.00;;;19.30;1.00;;;;;;5061243;28;20476;-80
2023/08/07 07:55:21;;;;;;;4.90;2.43;;;19.30;1.00;;;;;;5062132;28;20481;-79
2023/08/07 07:57:50;;;;;;;2.47;2.27;;;19.30;1.00;;;;;;5057473;28;20468;-84
2023/08/07 08:00:18;;;;;;;2.80;2.40;;;19.40;1.00;;;;;;5064509;28;20450;-82
2023/08/07 08:02:45;;;;;;;5.00;2.53;;;19.50;1.00;;;;;;5060198;28;20466;-79
2023/08/07 08:05:12;;;;;;;3.23;2.83;;;19.50;1.00;;;;;;5056206;28;20522;-79
2023/08/07 08:07:40;;;;;;;7.43;2.37;;;19.30;1.00;;;;;;5060733;28;21644;-81
2023/08/07 08:10:08;;;;;;;4.10;2.43;;;19.30;1.00;;;;;;5064312;28;20531;-80
2023/08/07 08:12:36;;;;;;;4.53;2.33;;;19.30;1.00;;;;;;5061197;28;20463;-79
2023/08/07 08:15:04;;;;;;;3.67;3.20;;;19.50;1.00;;;;;;5062233;28;20915;-80
2023/08/07 08:17:31;;;;;;;3.60;2.10;;;19.60;1.00;;;;;;5063712;28;20472;-78
2023/08/07 08:19:58;;;;;;;4.50;3.60;;;19.90;1.00;;;;;;5056704;28;20550;-77
2023/08/07 08:22:26;;;;;;;3.53;2.70;;;20.10;1.00;;;;;;5059436;28;21445;-78
2023/08/07 08:24:53;;;;;;;4.20;3.57;;;20.40;1.00;;;;;;5061627;28;20459;-79
2023/08/07 08:27:21;;;;;;;2.73;2.47;;;20.40;1.00;;;;;;5053019;28;20992;-77
2023/08/07 08:29:48;;;;;;;3.50;2.47;;;20.40;1.00;;;;;;5059863;28;20471;-78
2023/08/07 08:32:16;;;;;;;3.83;3.20;;;20.40;1.00;;;;;;5062873;28;20544;-77
2023/08/07 08:34:44;;;;;;;3.33;2.87;;;20.10;1.00;;;;;;5058721;28;20550;-77
2023/08/07 08:37:11;;;;;;;2.87;2.63;;;20.10;1.00;;;;;;5060491;28;20475;-78
2023/08/07 08:39:38;;;;;;;3.17;2.87;;;20.10;1.00;;;;;;5057205;28;20426;-81
2023/08/07 08:42:06;;;;;;;3.93;2.77;;;20.10;1.00;;;;;;5065112;28;20518;-80
2023/08/07 08:44:38;;;;;;;3.00;2.70;;;19.90;1.00;;;;;;5063868;28;20475;-79
2023/08/07 08:47:07;;;;;;;3.97;3.20;;;19.90;1.00;;;;;;5063786;28;20556;-81
2023/08/07 08:49:41;;;;;;;4.13;3.27;;;19.80;1.00;;;;;;5063330;28;20471;-79
2023/08/07 08:52:12;;;;;;;8.80;2.87;;;19.80;1.00;;;;;;5064633;28;20459;-83
2023/08/07 08:54:40;;;;;;;4.97;3.17;;;19.70;1.00;;;;;;5062580;28;20466;-80
2023/08/07 08:57:09;;;;;;;3.50;3.10;;;19.70;1.00;;;;;;5063998;28;20559;-83
2023/08/07 08:59:36;;;;;;;4.50;3.43;;;19.80;1.00;;;;;;5070695;28;20486;-82
2023/08/07 09:02:04;;;;;;;3.77;3.00;;;20.00;1.00;;;;;;5067141;28;20446;-79
2023/08/07 09:04:31;;;;;;;3.97;2.70;;;20.20;1.00;;;;;;5064066;28;20459;-81
2023/08/07 09:07:00;;;;;;;2.77;2.47;;;20.30;1.00;;;;;;5067326;28;20442;-83
2023/08/07 09:09:28;;;;;;;2.83;2.47;;;20.30;1.00;;;;;;5072661;28;20494;-85
2023/08/07 09:11:58;;;;;;;3.40;2.30;;;20.40;1.00;;;;;;5071527;28;20462;-80
2023/08/07 09:14:30;;;;;;;5.77;2.17;;;20.50;1.00;;;;;;5071804;28;20545;-83
2023/08/07 09:17:00;;;;;;;3.87;2.57;;;20.50;1.00;;;;;;5070380;28;20505;-81
2023/08/07 09:19:27;;;;;;;3.73;2.30;;;20.60;1.00;;;;;;5066566;28;20510;-82
2023/08/07 09:21:54;;;;;;;3.47;2.40;;;20.90;1.00;;;;;;5065533;28;20915;-80
2023/08/07 09:24:23;;;;;;;3.83;2.60;;;21.10;1.00;;;;;;5068433;28;20875;-82
2023/08/07 09:26:52;;;;;;;4.47;3.10;;;21.00;1.00;;;;;;5066618;28;20456;-77
2023/08/07 09:29:19;;;;;;;3.17;2.37;;;20.80;1.00;;;;;;5065486;28;20848;-79
2023/08/07 09:31:46;;;;;;;2.93;2.60;;;20.40;1.00;;;;;;5063409;28;20482;-77
2023/08/07 09:34:17;;;;;;;2.63;2.43;;;20.00;1.00;;;;;;5062830;28;20557;-77
2023/08/07 09:36:47;;;;;;;4.90;2.93;;;19.90;1.00;;;;;;5064650;28;20473;-76
2023/08/07 09:39:14;;;;;;;2.97;2.67;;;19.90;1.00;;;;;;5063817;28;20643;-77
2023/08/07 09:41:43;;;;;;;3.47;3.17;;;20.40;1.00;;;;;;5059972;28;20561;-80
2023/08/07 09:44:11;;;;;;;3.90;2.60;;;20.80;1.00;;;;;;5063382;28;20465;-79
2023/08/07 09:46:45;;;;;;;2.60;2.40;;;21.40;1.00;;;;;;5066110;28;20445;-81
2023/08/07 09:49:12;;;;;;;3.40;2.50;;;21.80;1.00;;;;;;5065552;28;20485;-83
2023/08/07 09:51:44;;;;;;;4.10;2.90;;;21.80;1.00;;;;;;5068832;28;20464;-82
2023/08/07 09:54:11;;;;;;;2.40;2.20;;;21.60;1.00;;;;;;5063307;28;21014;-82
2023/08/07 09:56:39;;;;;;;2.87;2.30;;;21.50;1.00;;;;;;5060601;28;20465;-78
2023/08/07 09:59:08;;;;;;;2.60;2.33;;;21.50;1.00;;;;;;5062302;28;20843;-77
2023/08/07 10:01:37;;;;;;;2.63;2.23;;;21.80;1.00;;;;;;5056912;28;20874;-77
2023/08/07 10:04:06;;;;;;;4.73;2.23;;;22.00;1.00;;;;;;5054908;28;21006;-78
2023/08/07 10:06:33;;;;;;;2.83;2.07;;;21.80;1.00;;;;;;5061385;28;20959;-78
2023/08/07 10:09:04;;;;;;;4.20;2.40;;;21.30;1.00;;;;;;5063625;28;21298;-78
2023/08/07 10:11:32;;;;;;;3.10;2.20;;;21.00;1.00;;;;;;5071277;28;20453;-78
2023/08/07 10:13:59;;;;;;;2.67;2.43;;;21.00;1.00;;;;;;5031675;28;20461;-79
2023/08/07 10:16:29;;;;;;;3.07;2.13;;;20.90;1.00;;;;;;5064432;28;20525;-78
2023/08/07 10:18:56;;;;;;;3.70;1.93;;;21.10;1.00;;;;;;5059519;28;20560;-78
2023/08/07 10:21:25;;;;;;;2.60;2.13;;;21.30;1.00;;;;;;5058454;28;20495;-76
2023/08/07 10:23:56;;;;;;;2.70;2.10;;;21.70;1.00;;;;;;5056764;28;20471;-76
2023/08/07 10:26:24;;;;;;;3.50;1.90;;;21.90;1.00;;;;;;5058671;28;20575;-78
2023/08/07 10:28:54;;;;;;;2.80;2.30;;;22.10;1.00;;;;;;5062211;28;20492;-78
2023/08/07 10:31:23;;;;;;;2.13;1.87;;;22.10;1.00;;;;;;5058315;28;20492;-78
2023/08/07 10:33:52;;;;;;;4.03;2.20;;;21.70;1.00;;;;;;5064788;28;20882;-77
2023/08/07 10:36:20;;;;;;;2.20;1.73;;;21.60;1.00;;;;;;5066073;28;20505;-78
2023/08/07 10:38:51;;;;;;;4.47;2.07;;;21.50;1.00;;;;;;5062899;28;20549;-77
2023/08/07 10:41:20;;;;;;;2.00;1.90;;;21.60;1.00;;;;;;5058959;28;20483;-79
2023/08/07 10:43:48;;;;;;;2.17;1.80;;;21.80;1.00;;;;;;5064836;28;20549;-77
2023/08/07 10:46:17;;;;;;;4.50;2.10;;;21.80;1.00;;;;;;5062782;28;21006;-78
2023/08/07 10:48:46;;;;;;;4.53;1.90;;;21.70;1.00;;;;;;5062467;28;20566;-77
2023/08/07 10:51:16;;;;;;;2.57;1.60;;;22.00;1.00;;;;;;5066145;28;20464;-81
2023/08/07 10:53:45;;;;;;;5.37;2.40;;;22.20;1.00;;;;;;5063760;28;20458;-79
2023/08/07 10:56:17;;;;;;;3.60;1.77;;;22.40;1.00;;;;;;5041803;28;21026;-83
2023/08/07 10:58:50;;;;;;;3.07;2.87;;;22.40;1.00;;;;;;5046914;28;20491;-80
2023/08/07 11:01:22;;;;;;;2.67;2.30;;;22.70;1.00;;;;;;5056893;28;20542;-81
2023/08/07 11:03:51;;;;;;;5.17;1.80;;;22.90;1.00;;;;;;5062098;28;20455;-77
2023/08/07 11:06:22;;;;;;;3.80;2.23;;;22.80;1.00;;;;;;5062069;28;20478;-78
2023/08/07 11:08:51;;;;;;;4.30;2.63;;;22.30;1.00;;;;;;5041355;28;20484;-77
2023/08/07 11:11:18;;;;;;;2.73;1.80;;;21.90;1.00;;;;;;5065667;28;20463;-79
2023/08/07 11:13:45;;;;;;;2.47;1.73;;;21.90;1.00;;;;;;5063904;28;20468;-79
2023/08/07 11:16:13;;;;;;;2.17;1.97;;;21.40;1.00;;;;;;5061682;28;20467;-78
2023/08/07 11:18:41;;;;;;;4.77;2.40;;;20.40;1.00;;;;;;5065030;28;20508;-78
2023/08/07 11:21:10;;;;;;;2.80;2.00;;;19.50;1.00;;;;;;5061764;28;20458;-80
2023/08/07 11:23:38;;;;;;;4.77;2.20;;;18.70;1.00;;;;;;5063462;28;21205;-80
2023/08/07 11:26:05;;;;;;;3.33;2.20;;;18.30;1.00;;;;;;5060587;28;20494;-79
2023/08/07 11:28:32;;;;;;;2.70;2.20;;;18.20;1.00;;;;;;5059835;28;20478;-81
2023/08/07 11:30:59;;;;;;;2.60;2.10;;;18.20;1.00;;;;;;5058284;28;20463;-82
2023/08/07 11:33:28;;;;;;;4.33;2.67;;;18.20;1.00;;;;;;5059993;28;20468;-81
2023/08/07 11:35:55;;;;;;;2.83;2.53;;;18.20;1.00;;;;;;5058097;28;20892;-78
2023/08/07 11:38:34;;;;;;;4.77;2.67;;;18.00;1.00;;;;;;5062934;28;20489;-79
2023/08/07 11:41:05;;;;;;;4.03;2.57;;;18.10;1.00;;;;;;5062396;28;20433;-81
2023/08/07 11:43:35;;;;;;;4.70;3.27;;;18.50;1.00;;;;;;5062868;28;22216;-84
2023/08/07 11:46:04;;;;;;;4.00;2.97;;;19.00;1.00;;;;;;5060565;28;20643;-80
2023/08/07 11:48:32;;;;;;;4.00;2.97;;;19.10;1.00;;;;;;5063696;28;20469;-79
2023/08/07 11:51:00;;;;;;;2.87;2.60;;;19.10;1.00;;;;;;5065330;28;21299;-80
2023/08/07 11:53:29;;;;;;;3.10;2.80;;;19.10;1.00;;;;;;5061671;28;21099;-80
2023/08/07 11:55:59;;;;;;;2.40;2.20;;;19.30;1.00;;;;;;5060231;28;20495;-81
2023/08/07 11:58:34;;;;;;;7.37;2.87;;;20.10;1.00;;;;;;5060707;28;21047;-77
2023/08/07 12:01:05;;;;;;;4.90;2.70;;;20.90;1.00;;;;;;5061643;28;22611;-79
2023/08/07 12:03:34;;;;;;;2.60;1.80;;;21.60;1.00;;;;;;5050975;28;20529;-82
2023/08/07 12:06:05;;;;;;;2.63;2.43;;;22.20;1.00;;;;;;5061955;28;20482;-75
2023/08/07 12:08:36;;;;;;;6.10;1.97;;;22.40;1.00;;;;;;5060329;28;20945;-78
2023/08/07 12:11:07;;;;;;;4.50;2.50;;;22.70;1.00;;;;;;5060495;28;20481;-80
2023/08/07 12:13:39;;;;;;;3.40;2.37;;;23.00;1.00;;;;;;5060393;28;20481;-79
2023/08/07 12:16:06;;;;;;;3.83;1.83;;;23.30;1.00;;;;;;5059331;28;20518;-78
2023/08/07 12:18:35;;;;;;;5.53;2.50;;;23.40;1.00;;;;;;5060629;28;20469;-78
2023/08/07 12:21:04;;;;;;;4.93;2.33;;;23.10;1.00;;;;;;5058440;28;20454;-79
2023/08/07 12:23:33;;;;;;;7.57;2.93;;;22.90;1.00;;;;;;5063280;28;20458;-79
2023/08/07 12:26:00;;;;;;;3.57;2.30;;;22.30;1.00;;;;;;5040278;28;20501;-78
2023/08/07 12:28:27;;;;;;;3.67;2.23;;;21.80;1.00;;;;;;5043979;28;20546;-80
2023/08/07 12:30:57;;;;;;;4.67;3.10;;;21.50;1.00;;;;;;5041225;28;20462;-77
2023/08/07 12:33:25;;;;;;;4.10;2.60;;;21.30;1.00;;;;;;5045235;28;21021;-80
2023/08/07 12:35:53;;;;;;;3.07;2.50;;;21.60;1.00;;;;;;5061555;28;20575;-81
2023/08/07 12:38:20;;;;;;;6.53;3.10;;;22.00;1.00;;;;;;5061092;28;20495;-79
2023/08/07 12:40:47;;;;;;;2.87;2.30;;;22.20;1.00;;;;;;5040684;28;20942;-79
2023/08/07 12:43:14;;;;;;;2.60;2.40;;;22.10;1.00;;;;;;5066641;28;20487;-81
2023/08/07 12:45:41;;;;;;;6.63;2.63;;;21.90;1.00;;;;;;5064081;28;20470;-81
2023/08/07 12:48:10;;;;;;;4.80;2.43;;;21.60;1.00;;;;;;5059562;28;20447;-80
2023/08/07 12:50:38;;;;;;;5.17;2.70;;;21.30;1.00;;;;;;5061332;28;20925;-83
2023/08/07 12:53:06;;;;;;;5.73;2.87;;;20.70;1.00;;;;;;5063608;28;22525;-82
2023/08/07 12:55:33;;;;;;;8.03;3.77;;;20.30;1.00;;;;;;5047984;28;20473;-80
2023/08/07 12:58:00;;;;;;;3.70;2.40;;;20.20;1.00;;;;;;5049741;28;20955;-80
2023/08/07 13:00:27;;;;;;;2.80;2.43;;;20.20;1.00;;;;;;5061787;28;20460;-78
2023/08/07 13:02:55;;;;;;;3.47;2.93;;;20.20;1.00;;;;;;5058057;28;20463;-76